Time;durP1;ratioP1;P1;durP2;ratioP2;P2;SDS_P1;SDS_P2;PMS_P1;PMS_P2;Temp;Humidity;BMP_temperature;BMP_pressure;BME280_temperature;BME280_humidity;BME280_pressure;Samples;Min_cycle;Max_cycle;Signal;HPM_P1;HPM_P2
2021/04/14 00:01:51;;;;;;;5.03;3.30;;;;;;;-139.48;100.00;61774.03;5058347;28;20440;-65
2021/04/14 00:04:35;;;;;;;5.47;2.90;;;;;;;-139.48;100.00;61774.03;5073675;28;20051;-67
2021/04/14 00:07:20;;;;;;;6.07;3.97;;;;;;;-139.48;100.00;61774.03;5058795;28;20047;-66
2021/04/14 00:10:05;;;;;;;5.50;3.25;;;;;;;-139.48;100.00;61774.03;5058429;28;20043;-66
2021/04/14 00:12:50;;;;;;;7.03;3.40;;;;;;;-139.48;100.00;61774.03;5073338;28;20401;-67
2021/04/14 00:15:39;;;;;;;7.63;3.40;;;;;;;-139.48;100.00;61774.03;5057341;28;20409;-66
2021/04/14 00:18:24;;;;;;;7.07;3.28;;;;;;;-139.48;100.00;61774.03;5058563;28;20046;-67
2021/04/14 00:21:09;;;;;;;4.70;3.40;;;;;;;-139.48;100.00;61774.03;5073072;28;20048;-67
2021/04/14 00:23:54;;;;;;;5.50;3.40;;;;;;;-139.48;100.00;61774.03;5058491;28;20085;-67
2021/04/14 00:26:38;;;;;;;9.18;3.70;;;;;;;-139.48;100.00;61774.03;5058340;28;20051;-67
2021/04/14 00:29:22;;;;;;;5.13;3.72;;;;;;;-139.48;100.00;61774.03;5058207;28;20109;-66
2021/04/14 00:32:06;;;;;;;4.03;3.13;;;;;;;-139.48;100.00;61774.03;5057724;28;20093;-66
2021/04/14 00:34:50;;;;;;;7.55;3.83;;;;;;;-139.48;100.00;61774.03;5058208;28;20127;-66
2021/04/14 00:37:34;;;;;;;6.10;3.60;;;;;;;-139.48;100.00;61774.03;5073341;28;20071;-66
2021/04/14 00:40:40;;;;;;;4.88;3.33;;;;;;;-139.48;100.00;61774.03;5058151;28;20052;-67
2021/04/14 00:43:26;;;;;;;6.53;3.45;;;;;;;-139.48;100.00;61774.03;5058009;28;20122;-66
2021/04/14 00:46:10;;;;;;;7.95;4.10;;;;;;;-139.48;100.00;61774.03;5057811;28;20131;-67
2021/04/14 00:48:54;;;;;;;9.30;3.38;;;;;;;-139.48;100.00;61774.03;5073098;28;20102;-69
2021/04/14 00:51:39;;;;;;;5.18;3.22;;;;;;;-139.48;100.00;61774.03;5057897;28;20098;-69
2021/04/14 00:54:23;;;;;;;6.10;3.22;;;;;;;-139.48;100.00;61774.03;5043637;28;20561;-69
2021/04/14 00:57:07;;;;;;;5.85;2.90;;;;;;;-139.48;100.00;61774.03;5072899;28;20067;-68
2021/04/14 00:59:51;;;;;;;6.43;3.60;;;;;;;-139.48;100.00;61774.03;5057930;28;20043;-69
2021/04/14 01:02:35;;;;;;;6.45;3.75;;;;;;;-139.48;100.00;61774.03;5072820;28;20056;-69
2021/04/14 01:05:19;;;;;;;5.95;3.20;;;;;;;-139.48;100.00;61774.03;5072929;28;20063;-68
2021/04/14 01:08:05;;;;;;;5.78;3.00;;;;;;;-139.48;100.00;61774.03;5057908;28;20046;-68
2021/04/14 01:10:49;;;;;;;7.80;3.35;;;;;;;-139.48;100.00;61774.03;5057651;28;20047;-68
2021/04/14 01:13:34;;;;;;;4.65;3.08;;;;;;;-139.48;100.00;61774.03;5057622;28;20043;-68
2021/04/14 01:16:18;;;;;;;6.68;2.97;;;;;;;-139.48;100.00;61774.03;5057785;28;20538;-68
2021/04/14 01:19:02;;;;;;;5.50;3.40;;;;;;;-139.48;100.00;61774.03;5057466;28;20094;-68
2021/04/14 01:21:46;;;;;;;5.88;3.40;;;;;;;-139.48;100.00;61774.03;5072742;28;20071;-68
2021/04/14 01:24:30;;;;;;;9.85;3.90;;;;;;;-139.48;100.00;61774.03;5072926;28;20051;-68
2021/04/14 01:27:13;;;;;;;6.43;2.85;;;;;;;-139.48;100.00;61774.03;5059518;28;20050;-68
2021/04/14 01:29:57;;;;;;;4.35;3.38;;;;;;;-139.48;100.00;61774.03;5076573;28;20047;-67
2021/04/14 01:32:41;;;;;;;5.75;3.40;;;;;;;-139.48;100.00;61774.03;5046765;28;20071;-68
2021/04/14 01:35:26;;;;;;;4.60;3.13;;;;;;;-139.48;100.00;61774.03;5087562;22;20126;-68
2021/04/14 01:38:11;;;;;;;9.93;3.25;;;;;;;-139.48;100.00;61774.03;5007381;28;20410;-68
2021/04/14 01:40:55;;;;;;;6.95;4.05;;;;;;;-139.48;100.00;61774.03;5036160;28;20045;-67
2021/04/14 01:43:39;;;;;;;6.65;3.97;;;;;;;-139.48;100.00;61774.03;5007271;28;20516;-70
2021/04/14 01:46:23;;;;;;;8.18;3.85;;;;;;;-139.48;100.00;61774.03;5036036;28;20056;-68
2021/04/14 01:49:07;;;;;;;7.90;3.92;;;;;;;-139.48;100.00;61774.03;5036192;28;20099;-70
2021/04/14 01:51:51;;;;;;;7.38;4.03;;;;;;;-139.48;100.00;61774.03;5021116;28;20044;-70
2021/04/14 01:54:35;;;;;;;5.55;3.70;;;;;;;-139.48;100.00;61774.03;5021208;28;20589;-69
2021/04/14 01:57:19;;;;;;;5.03;3.60;;;;;;;-139.48;100.00;61774.03;5036278;28;20104;-70
2021/04/14 02:00:15;;;;;;;6.43;4.22;;;;;;;-139.48;100.00;61774.03;5021068;28;20514;-70
2021/04/14 02:03:00;;;;;;;6.35;3.67;;;;;;;-139.48;100.00;61774.03;5035695;28;20064;-70
2021/04/14 02:05:43;;;;;;;8.07;3.90;;;;;;;-139.48;100.00;61774.03;5035786;28;20426;-69
2021/04/14 02:08:27;;;;;;;7.38;4.05;;;;;;;-139.48;100.00;61774.03;5020944;28;20103;-70
2021/04/14 02:11:13;;;;;;;7.80;4.22;;;;;;;-139.48;100.00;61774.03;5006683;28;20468;-70
2021/04/14 02:13:57;;;;;;;5.22;3.80;;;;;;;-139.48;100.00;61774.03;5035477;28;20128;-67
2021/04/14 02:16:41;;;;;;;5.82;3.50;;;;;;;-139.48;100.00;61774.03;5020650;28;20052;-70
2021/04/14 02:19:26;;;;;;;6.97;4.28;;;;;;;-139.48;100.00;61774.03;5020741;28;20048;-69
2021/04/14 02:22:10;;;;;;;6.68;4.00;;;;;;;-139.48;100.00;61774.03;5035901;28;20044;-69
2021/04/14 02:24:54;;;;;;;5.03;3.47;;;;;;;-139.48;100.00;61774.03;5006735;28;20052;-69
2021/04/14 02:27:39;;;;;;;5.95;4.07;;;;;;;-139.48;100.00;61774.03;5020398;28;20048;-69
2021/04/14 02:30:25;;;;;;;5.32;3.72;;;;;;;-139.48;100.00;61774.03;5006675;28;20419;-69
2021/04/14 02:33:10;;;;;;;7.60;3.80;;;;;;;-139.48;100.00;61774.03;5035497;28;20103;-69
2021/04/14 02:35:54;;;;;;;8.80;4.45;;;;;;;-139.48;100.00;61774.03;5035118;28;20111;-69
2021/04/14 02:38:38;;;;;;;9.45;4.22;;;;;;;-139.48;100.00;61774.03;5019617;28;20465;-69
2021/04/14 02:41:22;;;;;;;6.65;3.80;;;;;;;-139.48;100.00;61774.03;5020420;28;20098;-69
2021/04/14 02:44:06;;;;;;;9.52;3.85;;;;;;;-139.48;100.00;61774.03;5019994;28;20083;-69
2021/04/14 02:46:50;;;;;;;6.35;4.15;;;;;;;-139.48;100.00;61774.03;5035103;28;20092;-69
2021/04/14 02:49:35;;;;;;;10.15;4.35;;;;;;;-139.48;100.00;61774.03;5019883;28;20478;-69
2021/04/14 02:52:19;;;;;;;7.03;4.28;;;;;;;-139.48;100.00;61774.03;5006292;28;20048;-69
2021/04/14 02:55:05;;;;;;;8.60;4.15;;;;;;;-139.48;100.00;61774.03;5034656;28;20052;-70
2021/04/14 02:57:49;;;;;;;7.45;4.35;;;;;;;-139.48;100.00;61774.03;5019955;28;20118;-69
2021/04/14 03:00:33;;;;;;;6.82;3.80;;;;;;;-139.48;100.00;61774.03;5019641;28;20088;-69
2021/04/14 03:03:17;;;;;;;7.00;4.18;;;;;;;-139.48;100.00;61774.03;5020137;28;20489;-69
2021/04/14 03:06:01;;;;;;;5.85;4.13;;;;;;;-139.48;100.00;61774.03;5034466;28;20556;-69
2021/04/14 03:08:46;;;;;;;7.05;4.63;;;;;;;-139.48;100.00;61774.03;5019477;28;20099;-69
2021/04/14 03:11:30;;;;;;;6.15;4.25;;;;;;;-139.48;100.00;61774.03;5019392;28;20519;-69
2021/04/14 03:14:14;;;;;;;6.05;4.22;;;;;;;-139.48;100.00;61774.03;5034639;28;20044;-69
2021/04/14 03:16:58;;;;;;;7.20;4.65;;;;;;;-139.48;100.00;61774.03;5019238;28;20049;-69
2021/04/14 03:19:42;;;;;;;6.10;3.92;;;;;;;-139.48;100.00;61774.03;5019380;28;20110;-69
2021/04/14 03:22:26;;;;;;;7.80;4.10;;;;;;;-139.48;100.00;61774.03;5019483;28;20043;-69
2021/04/14 03:25:11;;;;;;;7.82;4.50;;;;;;;-139.48;100.00;61774.03;5019370;28;20076;-69
2021/04/14 03:27:54;;;;;;;8.85;4.65;;;;;;;-139.48;100.00;61774.03;5019255;28;20107;-69
2021/04/14 03:30:39;;;;;;;6.10;4.35;;;;;;;-139.48;100.00;61774.03;5019173;28;20064;-69
2021/04/14 03:33:23;;;;;;;7.35;4.28;;;;;;;-139.48;100.00;61774.03;5034324;28;20053;-69
2021/04/14 03:36:07;;;;;;;12.15;5.43;;;;;;;-139.48;100.00;61774.03;5019070;28;20540;-69
2021/04/14 03:38:51;;;;;;;7.13;4.72;;;;;;;-139.48;100.00;61774.03;5019557;28;20103;-69
2021/04/14 03:41:35;;;;;;;9.32;4.68;;;;;;;-139.48;100.00;61774.03;5034183;28;20049;-69
2021/04/14 03:44:19;;;;;;;6.90;4.55;;;;;;;-139.48;100.00;61774.03;5018922;28;20052;-69
2021/04/14 03:47:04;;;;;;;6.22;4.45;;;;;;;-139.48;100.00;61774.03;5033970;28;20552;-69
2021/04/14 03:49:50;;;;;;;7.75;4.38;;;;;;;-139.48;100.00;61774.03;5019056;28;20045;-69
2021/04/14 03:52:34;;;;;;;8.18;4.10;;;;;;;-139.48;100.00;61774.03;5018813;28;20175;-69
2021/04/14 03:55:20;;;;;;;7.32;4.20;;;;;;;-139.48;100.00;61774.03;5033547;28;20449;-69
2021/04/14 03:58:04;;;;;;;9.98;4.55;;;;;;;-139.48;100.00;61774.03;5018917;28;20127;-69
2021/04/14 04:00:53;;;;;;;10.25;4.50;;;;;;;-139.48;100.00;61774.03;5033823;28;20124;-69
2021/04/14 04:03:37;;;;;;;6.32;3.72;;;;;;;-139.48;100.00;61774.03;5005048;28;20051;-69
2021/04/14 04:06:21;;;;;;;7.97;4.38;;;;;;;-139.48;100.00;61774.03;5018503;28;20568;-69
2021/04/14 04:09:05;;;;;;;6.63;4.18;;;;;;;-139.48;100.00;61774.03;5018742;28;20413;-69
2021/04/14 04:11:49;;;;;;;9.25;3.80;;;;;;;-139.48;100.00;61774.03;5004843;28;20052;-69
2021/04/14 04:14:35;;;;;;;7.70;4.68;;;;;;;-139.48;100.00;61774.03;5018419;28;20521;-67
2021/04/14 04:17:20;;;;;;;9.10;5.50;;;;;;;-139.48;100.00;61774.03;5033591;28;20155;-69
2021/04/14 04:20:09;;;;;;;8.88;5.32;;;;;;;-139.48;100.00;61774.03;5018306;28;20555;-69
2021/04/14 04:22:54;;;;;;;10.70;5.03;;;;;;;-139.48;100.00;61774.03;5018581;28;20040;-69
2021/04/14 04:25:38;;;;;;;10.85;6.88;;;;;;;-139.48;100.00;61774.03;5018278;28;20567;-69
2021/04/14 04:28:22;;;;;;;9.50;5.70;;;;;;;-139.48;100.00;61774.03;5033238;28;20156;-69
2021/04/14 04:31:07;;;;;;;10.48;5.28;;;;;;;-139.48;100.00;61774.03;5033082;28;20553;-69
2021/04/14 04:33:51;;;;;;;7.70;5.68;;;;;;;-139.48;100.00;61774.03;5018191;28;20102;-69
2021/04/14 04:36:35;;;;;;;13.93;7.38;;;;;;;-139.48;100.00;61774.03;5004137;28;20049;-69
2021/04/14 04:39:20;;;;;;;9.27;6.97;;;;;;;-139.48;100.00;61774.03;5033346;28;20092;-69
2021/04/14 04:42:04;;;;;;;9.10;6.97;;;;;;;-139.48;100.00;61774.03;5018395;28;20064;-69
2021/04/14 04:44:48;;;;;;;12.02;7.25;;;;;;;-139.48;100.00;61774.03;5004117;28;20044;-69
2021/04/14 04:47:32;;;;;;;9.27;6.70;;;;;;;-139.48;100.00;61774.03;5033264;28;20048;-69
2021/04/14 04:50:18;;;;;;;9.60;6.65;;;;;;;-139.48;100.00;61774.03;5018576;28;20048;-69
2021/04/14 04:53:09;;;;;;;13.52;6.75;;;;;;;-139.48;100.00;61774.03;5004319;28;20087;-69
2021/04/14 04:55:53;;;;;;;11.77;7.63;;;;;;;-139.48;100.00;61774.03;5004066;28;20418;-69
2021/04/14 04:58:37;;;;;;;17.08;7.60;;;;;;;-139.48;100.00;61774.03;5033153;28;20549;-69
2021/04/14 05:01:21;;;;;;;9.52;7.07;;;;;;;-139.48;100.00;61774.03;5033454;28;20512;-69
2021/04/14 05:04:05;;;;;;;14.57;8.20;;;;;;;-139.48;100.00;61774.03;5021970;28;20048;-69
2021/04/14 05:06:49;;;;;;;14.30;7.47;;;;;;;-139.48;100.00;61774.03;5037073;28;20064;-69
2021/04/14 05:09:33;;;;;;;10.73;7.53;;;;;;;-139.48;100.00;61774.03;5022049;28;20129;-69
2021/04/14 05:12:17;;;;;;;14.55;7.90;;;;;;;-139.48;100.00;61774.03;5036696;28;20049;-69
2021/04/14 05:15:01;;;;;;;13.27;7.90;;;;;;;-139.48;100.00;61774.03;5007774;28;20099;-69
2021/04/14 05:17:45;;;;;;;10.95;7.43;;;;;;;-139.48;100.00;61774.03;5021988;28;20461;-70
2021/04/14 05:20:29;;;;;;;11.00;7.25;;;;;;;-139.48;100.00;61774.03;5021750;28;20083;-69
2021/04/14 05:23:13;;;;;;;11.10;7.22;;;;;;;-139.48;100.00;61774.03;5021913;28;20052;-69
2021/04/14 05:25:57;;;;;;;12.23;7.50;;;;;;;-139.48;100.00;61774.03;5036589;28;20095;-69
2021/04/14 05:28:43;;;;;;;8.27;7.07;;;;;;;-139.48;100.00;61774.03;5021609;28;20194;-69
2021/04/14 05:31:29;;;;;;;14.57;7.60;;;;;;;-139.48;100.00;61774.03;5021325;28;20056;-69
2021/04/14 05:34:13;;;;;;;11.75;8.23;;;;;;;-139.48;100.00;61774.03;5021913;28;20048;-69
2021/04/14 05:36:56;;;;;;;12.27;7.70;;;;;;;-139.48;100.00;61774.03;5036411;28;20052;-69
2021/04/14 05:39:40;;;;;;;13.27;8.15;;;;;;;-139.48;100.00;61774.03;5021502;28;20513;-69
2021/04/14 05:42:24;;;;;;;12.93;7.65;;;;;;;-139.48;100.00;61774.03;5021667;28;20517;-69
2021/04/14 05:45:10;;;;;;;12.52;8.27;;;;;;;-139.48;100.00;61774.03;5021135;28;20560;-69
2021/04/14 05:47:55;;;;;;;11.93;8.10;;;;;;;-139.48;100.00;61774.03;5021469;28;20560;-70
2021/04/14 05:50:39;;;;;;;16.23;8.80;;;;;;;-139.48;100.00;61774.03;5021410;28;20509;-70
2021/04/14 05:53:23;;;;;;;14.70;9.05;;;;;;;-139.48;100.00;61774.03;5021089;28;20497;-68
2021/04/14 05:56:08;;;;;;;14.68;9.63;;;;;;;-139.48;100.00;61774.03;5021438;28;20103;-69
2021/04/14 05:58:53;;;;;;;14.57;9.38;;;;;;;-139.48;100.00;61774.03;5021423;28;20075;-70
2021/04/14 06:01:37;;;;;;;20.60;9.55;;;;;;;-139.48;100.00;61774.03;5021078;28;20044;-69
2021/04/14 06:04:21;;;;;;;16.02;10.25;;;;;;;-139.48;100.00;61774.03;5020763;28;20075;-69
2021/04/14 06:07:05;;;;;;;14.40;9.13;;;;;;;-139.48;100.00;61774.03;5007082;28;20048;-69
2021/04/14 06:09:49;;;;;;;16.10;9.00;;;;;;;-139.48;100.00;61774.03;5035691;28;20569;-69
2021/04/14 06:12:33;;;;;;;16.38;9.00;;;;;;;-139.48;100.00;61774.03;5020478;28;20056;-69
2021/04/14 06:15:20;;;;;;;13.95;9.23;;;;;;;-139.48;100.00;61774.03;5020722;28;20106;-69
2021/04/14 06:18:04;;;;;;;17.40;9.98;;;;;;;-139.48;100.00;61774.03;5006671;28;20056;-69
2021/04/14 06:20:48;;;;;;;13.57;10.35;;;;;;;-139.48;100.00;61774.03;5020734;28;20092;-69
2021/04/14 06:23:32;;;;;;;18.83;11.85;;;;;;;-139.48;100.00;61774.03;5035691;28;20103;-69
2021/04/14 06:26:24;;;;;;;19.33;11.27;;;;;;;-139.48;100.00;61774.03;5035383;28;20056;-70
2021/04/14 06:29:08;;;;;;;13.27;9.35;;;;;;;-139.48;100.00;61774.03;5035255;28;20048;-70
2021/04/14 06:31:53;;;;;;;14.18;9.07;;;;;;;-139.48;100.00;61774.03;5020571;28;20095;-69
2021/04/14 06:34:37;;;;;;;15.30;9.20;;;;;;;-139.48;100.00;61774.03;5020645;28;20047;-70
2021/04/14 06:37:21;;;;;;;11.75;9.10;;;;;;;-139.48;100.00;61774.03;5020188;28;20423;-70
2021/04/14 06:43:25;;;;;;;15.52;10.95;;;;;;;-139.48;100.00;61774.03;5023038;28;20048;-69
2021/04/14 06:46:16;;;;;;;17.00;11.70;;;;;;;-139.48;100.00;61774.03;5020693;28;20044;-69
2021/04/14 06:49:17;;;;;;;15.25;10.70;;;;;;;-139.48;100.00;61774.03;5035211;28;20103;-69
2021/04/14 06:52:11;;;;;;;16.20;10.88;;;;;;;-139.48;100.00;61774.03;5006356;28;20103;-69
2021/04/14 06:55:05;;;;;;;15.75;11.18;;;;;;;-139.48;100.00;61774.03;5020033;28;20103;-69
2021/04/14 06:58:18;;;;;;;18.55;11.52;;;;;;;-139.48;100.00;61774.03;5019819;28;20052;-69
2021/04/14 07:01:05;;;;;;;19.30;10.43;;;;;;;-139.48;100.00;61774.03;5005890;28;20456;-69
2021/04/14 07:04:09;;;;;;;17.30;10.40;;;;;;;-139.48;100.00;61774.03;5019832;28;20525;-69
2021/04/14 07:06:53;;;;;;;18.77;10.80;;;;;;;-139.48;100.00;61774.03;5019658;28;20111;-70
2021/04/14 07:09:40;;;;;;;15.38;10.13;;;;;;;-139.48;100.00;61774.03;5005992;28;20514;-69
2021/04/14 07:12:25;;;;;;;19.17;9.70;;;;;;;-139.48;100.00;61774.03;5019653;28;20417;-69
2021/04/14 07:15:11;;;;;;;14.88;10.05;;;;;;;-139.48;100.00;61774.03;5005723;28;20098;-69
2021/04/14 07:18:05;;;;;;;16.80;9.90;;;;;;;-139.48;100.00;61774.03;5019684;28;20099;-70
2021/04/14 07:21:13;;;;;;;13.77;9.40;;;;;;;-139.48;100.00;61774.03;5034541;28;20068;-70
2021/04/14 07:24:01;;;;;;;17.73;9.32;;;;;;;-139.48;100.00;61774.03;5004059;28;20059;-70
2021/04/14 07:26:51;;;;;;;14.43;9.93;;;;;;;-139.48;100.00;61774.03;5019168;28;20052;-70
2021/04/14 07:29:40;;;;;;;14.23;9.07;;;;;;;-139.48;100.00;61774.03;5019406;28;20094;-69
2021/04/14 07:32:53;;;;;;;13.93;9.25;;;;;;;-139.48;100.00;61774.03;5019001;28;20048;-66
2021/04/14 07:35:49;;;;;;;16.10;9.52;;;;;;;-139.48;100.00;61774.03;5026501;28;20048;-69
2021/04/14 07:38:56;;;;;;;10.25;7.18;;;;;;;-139.48;100.00;61774.03;5005601;28;20048;-66
2021/04/14 07:41:40;;;;;;;15.75;8.82;;;;;;;-139.48;100.00;61774.03;5019360;28;20509;-68
2021/04/14 07:44:28;;;;;;;13.73;8.80;;;;;;;-139.48;100.00;61774.03;5018944;28;20084;-66
2021/04/14 07:47:12;;;;;;;11.95;7.70;;;;;;;-139.48;100.00;61774.03;5034104;28;20079;-67
2021/04/14 07:49:57;;;;;;;12.68;8.45;;;;;;;-139.48;100.00;61774.03;5018916;28;20052;-68
2021/04/14 07:52:41;;;;;;;10.43;7.45;;;;;;;-139.48;100.00;61774.03;5034076;28;20095;-69
2021/04/14 07:55:32;;;;;;;16.25;8.32;;;;;;;-139.48;100.00;61774.03;5018937;28;20132;-69
2021/04/14 07:58:23;;;;;;;14.15;8.48;;;;;;;-139.48;100.00;61774.03;5018802;28;20124;-68
2021/04/14 08:01:16;;;;;;;14.23;9.68;;;;;;;-139.48;100.00;61774.03;5018871;28;20133;-69
2021/04/14 08:04:20;;;;;;;16.27;9.13;;;;;;;-139.48;100.00;61774.03;5034041;28;20509;-69
2021/04/14 08:07:15;;;;;;;14.47;9.33;;;;;;;-139.48;100.00;61774.03;5004689;28;20044;-69
2021/04/14 08:10:00;;;;;;;;;;;;;;;-139.48;100.00;61774.03;5019173;28;20317;-69
2021/04/14 08:12:54;;;;;;;12.65;8.48;;;;;;;-139.48;100.00;61774.03;5018683;28;19943;-69
2021/04/14 08:15:42;;;;;;;;;;;;;;;-139.48;100.00;61774.03;5018776;28;20115;-67
2021/04/14 08:18:29;;;;;;;10.35;7.60;;;;;;;-139.48;100.00;61774.03;5019079;28;19920;-67
2021/04/14 08:21:30;;;;;;;14.75;8.02;;;;;;;-139.48;100.00;61774.03;5018763;28;20163;-69
2021/04/14 08:24:26;;;;;;;13.50;8.10;;;;;;;-139.48;100.00;61774.03;5018557;28;20136;-69
2021/04/14 08:27:16;;;;;;;11.48;7.22;;;;;;;-139.48;100.00;61774.03;5004637;28;20111;-66
2021/04/14 08:30:29;;;;;;;11.60;7.30;;;;;;;-139.48;100.00;61774.03;5018263;28;20047;-68
2021/04/14 08:33:19;;;;;;;20.10;12.88;;;;;;;-139.48;100.00;61774.03;5011681;28;20052;-68
2021/04/14 08:36:23;;;;;;;10.77;7.13;;;;;;;-139.48;100.00;61774.03;5003420;28;20083;-68
2021/04/14 08:39:21;;;;;;;20.67;7.72;;;;;;;-139.48;100.00;61774.03;5018337;28;20068;-68
2021/04/14 08:42:08;;;;;;;12.77;9.02;;;;;;;-139.48;100.00;61774.03;5018030;28;20040;-68
2021/04/14 08:44:56;;;;;;;12.20;8.63;;;;;;;-139.48;100.00;61774.03;5032975;28;20071;-68
2021/04/14 08:47:51;;;;;;;11.38;7.35;;;;;;;-139.48;100.00;61774.03;5018074;28;20078;-67
2021/04/14 08:50:39;;;;;;;15.73;8.40;;;;;;;-139.48;100.00;61774.03;5018427;28;20107;-69
2021/04/14 08:53:36;;;;;;;11.00;7.40;;;;;;;-139.48;100.00;61774.03;5017934;28;20051;-69
2021/04/14 08:56:21;;;;;;;14.98;9.68;;;;;;;-139.48;100.00;61774.03;4990531;28;20115;-69
2021/04/14 08:59:06;;;;;;;12.40;6.30;;;;;;;-139.48;100.00;61774.03;5032912;28;20456;-69
2021/04/14 09:01:53;;;;;;;14.93;11.85;;;;;;;-139.48;100.00;61774.03;5018204;28;20044;-69
2021/04/14 09:04:42;;;;;;;9.57;6.80;;;;;;;-139.48;100.00;61774.03;5018116;28;20187;-69
2021/04/14 09:07:34;;;;;;;14.98;12.13;;;;;;;-139.48;100.00;61774.03;5033868;28;20048;-69
2021/04/14 09:10:36;;;;;;;11.00;8.25;;;;;;;-139.48;100.00;61774.03;5018200;28;20095;-69
2021/04/14 09:13:46;;;;;;;10.13;5.82;;;;;;;-139.48;100.00;61774.03;5018186;28;20398;-69
2021/04/14 09:16:33;;;;;;;6.03;5.05;;;;;;;-139.48;100.00;61774.03;5032911;28;20088;-69
2021/04/14 09:19:26;;;;;;;12.60;6.00;;;;;;;-139.48;100.00;61774.03;5017943;28;20056;-69
2021/04/14 09:22:13;;;;;;;10.63;5.88;;;;;;;-139.48;100.00;61774.03;5003972;28;20475;-69
2021/04/14 09:25:11;;;;;;;8.00;5.28;;;;;;;-139.48;100.00;61774.03;5017974;28;20417;-69
2021/04/14 09:27:59;;;;;;;8.73;4.88;;;;;;;-139.48;100.00;61774.03;5017912;28;20076;-69
2021/04/14 09:30:51;;;;;;;8.95;6.63;;;;;;;-139.48;100.00;61774.03;5017859;28;20525;-70
2021/04/14 09:33:45;;;;;;;6.38;4.38;;;;;;;-139.48;100.00;61774.03;5004050;28;20157;-69
2021/04/14 09:36:30;;;;;;;;;;;;;;;-139.48;100.00;61774.03;5004547;28;20110;-69
2021/04/14 09:39:52;;;;;;;8.90;5.18;;;;;;;-139.48;100.00;61774.03;5017518;28;20329;-68
2021/04/14 09:42:46;;;;;;;6.20;4.18;;;;;;;-139.48;100.00;61774.03;5032508;28;20044;-69
2021/04/14 09:45:32;;;;;;;;;;;;;;;-139.48;100.00;61774.03;5032899;28;20091;-70
2021/04/14 09:48:17;;;;;;;6.38;4.07;;;;;;;-139.48;100.00;61774.03;5019907;28;20282;-69
2021/04/14 09:51:01;;;;;;;8.23;5.18;;;;;;;-139.48;100.00;61774.03;5021282;28;20064;-69
2021/04/14 09:53:49;;;;;;;6.68;4.63;;;;;;;-139.48;100.00;61774.03;5021294;28;20125;-70
2021/04/14 09:56:34;;;;;;;8.07;4.00;;;;;;;-139.48;100.00;61774.03;5021545;28;20103;-67
2021/04/14 09:59:32;;;;;;;8.63;5.90;;;;;;;-139.48;100.00;61774.03;5007606;28;20049;-68
2021/04/14 10:02:22;;;;;;;5.97;3.90;;;;;;;-139.48;100.00;61774.03;5021047;28;20418;-68
2021/04/14 10:05:06;;;;;;;10.43;5.80;;;;;;;-139.48;100.00;61774.03;5020883;28;20051;-68
2021/04/14 10:07:50;;;;;;;6.22;4.53;;;;;;;-139.48;100.00;61774.03;5020715;28;20510;-68
2021/04/14 10:10:46;;;;;;;5.22;3.50;;;;;;;-139.48;100.00;61774.03;5007194;28;20048;-68
2021/04/14 10:13:32;;;;;;;5.78;3.60;;;;;;;-139.48;100.00;61774.03;5035933;28;20398;-68
2021/04/14 10:16:24;;;;;;;4.07;2.70;;;;;;;-139.48;100.00;61774.03;5021067;28;20052;-69
2021/04/14 10:19:10;;;;;;;6.57;4.18;;;;;;;-139.48;100.00;61774.03;5020824;28;20051;-69
2021/04/14 10:21:54;;;;;;;4.15;3.10;;;;;;;-139.48;100.00;61774.03;5035950;28;20071;-68
2021/04/14 10:24:38;;;;;;;;;;;;;;;-139.48;100.00;61774.03;5007275;28;20101;-69
2021/04/14 10:27:22;;;;;;;6.33;2.83;;;;;;;-139.48;100.00;61774.03;5035712;28;19974;-68
2021/04/14 10:30:09;;;;;;;4.05;2.55;;;;;;;-139.48;100.00;61774.03;5020298;28;20640;-68
2021/04/14 10:33:08;;;;;;;7.43;4.35;;;;;;;-139.48;100.00;61774.03;5035498;28;20048;-67
2021/04/14 10:35:52;;;;;;;5.85;3.78;;;;;;;-139.48;100.00;61774.03;5020105;28;20079;-68
2021/04/14 10:38:37;;;;;;;8.48;4.10;;;;;;;-139.48;100.00;61774.03;5035245;28;20124;-68
2021/04/14 10:41:28;;;;;;;4.88;3.55;;;;;;;-139.48;100.00;61774.03;5020087;28;20475;-69
2021/04/14 10:44:16;;;;;;;3.95;3.25;;;;;;;-139.48;100.00;61774.03;5035266;28;20496;-68
2021/04/14 10:47:05;;;;;;;4.20;2.97;;;;;;;-139.48;100.00;61774.03;5020065;28;20098;-68
2021/04/14 10:49:50;;;;;;;6.97;3.42;;;;;;;-139.48;100.00;61774.03;5020273;28;20044;-68
2021/04/14 10:52:34;;;;;;;5.60;3.70;;;;;;;-139.48;100.00;61774.03;5020141;28;20080;-68
2021/04/14 10:55:21;;;;;;;6.45;3.80;;;;;;;-139.48;100.00;61774.03;5019756;28;20047;-68
2021/04/14 10:58:07;;;;;;;10.70;3.92;;;;;;;-139.48;100.00;61774.03;5006179;28;20052;-68
2021/04/14 11:00:52;;;;;;;5.72;4.30;;;;;;;-139.48;100.00;61774.03;5039102;23;20063;-68
2021/04/14 11:03:36;;;;;;;8.85;4.68;;;;;;;-139.48;100.00;61774.03;5059401;28;20413;-68
2021/04/14 11:06:21;;;;;;;9.20;4.93;;;;;;;-139.48;100.00;61774.03;5074046;28;20043;-68
2021/04/14 11:09:06;;;;;;;6.60;4.40;;;;;;;-139.48;100.00;61774.03;5074441;28;20052;-68
2021/04/14 11:11:50;;;;;;;9.18;6.78;;;;;;;-139.48;100.00;61774.03;5053445;28;20048;-68
2021/04/14 11:14:38;;;;;;;6.60;4.32;;;;;;;-139.48;100.00;61774.03;5054530;28;20131;-68
2021/04/14 11:17:25;;;;;;;5.28;3.67;;;;;;;-139.48;100.00;61774.03;5039558;28;20060;-67
2021/04/14 11:20:13;;;;;;;7.63;4.43;;;;;;;-139.48;100.00;61774.03;5039151;28;20051;-68
2021/04/14 11:22:57;;;;;;;10.55;7.32;;;;;;;-139.48;100.00;61774.03;5038913;28;20052;-68
2021/04/14 11:25:41;;;;;;;7.93;4.80;;;;;;;-139.48;100.00;61774.03;5053305;28;20051;-67
2021/04/14 11:28:25;;;;;;;6.45;4.55;;;;;;;-139.48;100.00;61774.03;5052987;28;20098;-67
2021/04/14 11:31:10;;;;;;;8.55;4.07;;;;;;;-139.48;100.00;61774.03;5052911;28;20052;-68
2021/04/14 11:33:55;;;;;;;6.85;3.78;;;;;;;-139.48;100.00;61774.03;5053136;28;20504;-68
2021/04/14 11:36:39;;;;;;;6.85;3.83;;;;;;;-139.48;100.00;61774.03;5038912;28;20070;-67
2021/04/14 11:39:24;;;;;;;;;;;;;;;-139.48;100.00;61774.03;5053456;28;20052;-68
2021/04/14 11:42:15;;;;;;;16.35;9.45;;;;;;;-139.48;100.00;61774.03;5053751;28;20011;-68
2021/04/14 11:45:00;;;;;;;13.52;7.93;;;;;;;-139.48;100.00;61774.03;5054044;28;20052;-68
2021/04/14 11:47:43;;;;;;;15.88;9.02;;;;;;;-139.48;100.00;61774.03;5038562;28;20051;-66
2021/04/14 11:50:34;;;;;;;16.98;9.43;;;;;;;-139.48;100.00;61774.03;5053711;28;20090;-67
2021/04/14 11:53:18;;;;;;;46.63;26.52;;;;;;;-139.48;100.00;61774.03;5039198;28;20071;-67
2021/04/14 11:56:02;;;;;;;28.52;15.63;;;;;;;-139.48;100.00;61774.03;5053849;28;20048;-68
2021/04/14 11:58:47;;;;;;;9.60;5.90;;;;;;;-139.48;100.00;61774.03;5038490;28;20055;-68
2021/04/14 12:01:33;;;;;;;7.40;5.07;;;;;;;-139.48;100.00;61774.03;5052472;28;20437;-68
2021/04/14 12:04:17;;;;;;;19.77;11.38;;;;;;;-139.48;100.00;61774.03;5038599;28;20056;-68
2021/04/14 12:07:01;;;;;;;13.48;8.88;;;;;;;-139.48;100.00;61774.03;5038479;28;20551;-68
2021/04/14 12:09:45;;;;;;;14.20;8.90;;;;;;;-139.48;100.00;61774.03;5052590;28;20102;-68
2021/04/14 12:12:29;;;;;;;16.00;7.78;;;;;;;-139.48;100.00;61774.03;5052712;28;20098;-68
2021/04/14 12:15:14;;;;;;;8.50;4.78;;;;;;;-139.48;100.00;61774.03;5053399;28;20080;-66
2021/04/14 12:17:58;;;;;;;8.13;5.00;;;;;;;-139.48;100.00;61774.03;5052821;28;20147;-68
2021/04/14 12:20:42;;;;;;;18.40;10.93;;;;;;;-139.48;100.00;61774.03;5038329;28;20051;-68
2021/04/14 12:23:26;;;;;;;7.32;4.35;;;;;;;-139.48;100.00;61774.03;5038085;28;20048;-68
2021/04/14 12:26:10;;;;;;;6.75;3.70;;;;;;;-139.48;100.00;61774.03;5052377;28;20405;-68
2021/04/14 12:28:54;;;;;;;6.63;3.40;;;;;;;-139.48;100.00;61774.03;5052146;28;20102;-68
2021/04/14 12:31:38;;;;;;;29.65;15.10;;;;;;;-139.48;100.00;61774.03;5051955;28;20424;-68
2021/04/14 12:34:22;;;;;;;35.67;18.02;;;;;;;-139.48;100.00;61774.03;5052564;28;20110;-68
2021/04/14 12:37:06;;;;;;;9.43;6.10;;;;;;;-139.48;100.00;61774.03;5038329;28;20052;-68
2021/04/14 12:39:50;;;;;;;8.65;5.85;;;;;;;-139.48;100.00;61774.03;5052190;28;20083;-68